Latest Weather Observations for Whyalla

IDS60801

Issued at 7:51 am CDT Sunday 20 January 2019 (issued every 10 minutes, with the page automatically refreshed every 10 minutes)

About weather observations | Map of weather stations | Latest weather observations for SA | Other Formats
Station Details ID: 018120 Name: WHYALLA AERO Lat: -33.05 Lon: 137.52 Height: 9.3 m
Data from the previous 72 hours. | See also: Recent months at Whyalla
Date/Time
CDT
Temp
°C
App
Temp
°C
Dew
Point
°C
Rel
Hum
%
Delta-T
°C
Wind Press
QNH
hPa
Press
MSL
hPa
Rain since
9am
mm
Dir  Spd
km/h
Gust
km/h
Spd
kts
Gust
kts
20/07:30am 21.7 18.9 11.4 52 5.7 SSE 17 24 9 13 1018.7 1018.6 0.0
20/07:00am 21.2 19.2 13.9 63 4.2 S 17 22 9 12 1018.4 1018.3 0.0
20/06:30am 21.1 18.7 13.8 63 4.2 S 19 24 10 13 1018.2 1018.1 0.0
20/06:00am 20.8 18.2 13.7 64 4.1 S 20 28 11 15 1018.2 1018.1 0.0
20/05:30am 20.7 17.7 14.8 69 3.5 S 24 32 13 17 1018.1 1018.0 0.0
20/05:00am 20.7 18.3 15.3 71 3.2 S 22 30 12 16 1018.1 1018.0 0.0
20/04:30am 20.5 18.1 15.5 73 3.0 S 22 32 12 17 1018.0 1017.9 0.0
20/04:00am 20.6 18.0 15.8 74 2.9 S 24 33 13 18 1018.2 1018.1 0.0
20/03:30am 20.5 18.5 15.5 73 3.0 S 20 32 11 17 1018.5 1018.4 0.0
20/03:00am 20.7 17.9 15.3 71 3.2 S 24 33 13 18 1018.9 1018.8 0.0
20/02:30am 20.8 17.9 15.1 70 3.4 S 24 32 13 17 1019.3 1019.2 0.0
20/02:00am 20.8 18.2 15.8 73 3.0 S 24 30 13 16 1019.8 1019.7 0.0
20/01:30am 20.8 18.2 15.8 73 3.0 S 24 33 13 18 1020.2 1020.1 0.0
20/01:00am 20.8 17.8 15.8 73 3.0 S 26 35 14 19 1020.5 1020.4 0.0
20/12:30am 20.8 18.3 16.2 75 2.8 S 24 33 13 18 1020.9 1020.8 0.0
20/12:00am 20.8 19.0 16.0 74 2.9 S 20 30 11 16 1021.0 1020.9 0.0
 
Date/Time
CDT
Temp
°C
App
Temp
°C
Dew
Point
°C
Rel
Hum
%
Delta-T
°C
Wind Press
QNH
hPa
Press
MSL
hPa
Rain since
9am
mm
Dir  Spd
km/h
Gust
km/h
Spd
kts
Gust
kts
19/11:30pm 21.4 18.2 15.3 68 3.6 S 26 39 14 21 1020.9 1020.8 0.0
19/11:00pm 22.3 18.3 13.1 56 5.3 S 26 33 14 18 1020.9 1020.8 0.0
19/10:30pm 22.4 18.1 14.3 60 4.7 SSE 30 39 16 21 1020.5 1020.4 0.0
19/10:00pm 23.1 19.9 16.2 65 4.2 S 28 43 15 23 1020.1 1020.0 0.0
19/09:30pm 22.6 18.5 16.4 68 3.8 S 33 46 18 25 1020.0 1019.9 0.0
19/09:00pm 22.8 18.4 15.1 62 4.6 SSW 32 41 17 22 1020.0 1019.9 0.0
19/08:36pm 23.3 18.0 14.3 57 5.3 SSW 35 54 19 29 1019.6 1019.5 0.0
19/08:30pm 23.3 17.5 14.0 56 5.4 SSW 37 54 20 29 1019.5 1019.4 0.0
19/08:00pm 24.0 18.2 12.6 49 6.5 SSW 35 52 19 28 1019.1 1019.0 0.0
19/07:30pm 24.4 18.5 13.6 51 6.3 SSW 37 46 20 25 1018.6 1018.5 0.0
19/07:00pm 25.0 19.0 13.2 48 6.9 SSW 37 52 20 28 1018.0 1017.9 0.0
19/06:30pm 25.1 19.0 13.0 47 7.0 SSW 37 52 20 28 1017.9 1017.8 0.0
19/06:00pm 25.5 19.5 14.3 50 6.6 SSW 39 48 21 26 1018.0 1017.9 0.0
19/05:30pm 26.8 19.3 12.1 40 8.5 SSW 43 54 23 29 1017.9 1017.8 0.0
19/05:00pm 27.2 19.3 10.8 36 9.3 SSW 43 54 23 29 1018.0 1017.9 0.0
19/04:30pm 26.5 18.9 12.5 41 8.1 SSW 44 54 24 29 1017.9 1017.8 0.0
19/04:00pm 26.3 19.9 14.4 48 7.1 SSW 41 50 22 27 1018.4 1018.3 0.0
19/03:30pm 26.2 19.6 13.7 46 7.4 S 41 48 22 26 1018.6 1018.5 0.0
19/03:00pm 26.1 20.5 15.5 52 6.4 SSW 39 50 21 27 1019.0 1018.9 0.0
19/02:30pm 26.0 19.7 13.5 46 7.3 S 39 52 21 28 1019.1 1019.0 0.0
19/02:00pm 25.5 19.7 14.0 49 6.8 S 37 46 20 25 1019.3 1019.2 0.0
19/01:30pm 25.2 19.7 13.7 49 6.7 S 35 44 19 24 1019.9 1019.8 0.0
19/01:00pm 25.2 20.0 13.4 48 6.9 S 33 43 18 23 1020.3 1020.2 0.0
19/12:30pm 24.3 19.3 13.5 51 6.3 S 32 41 17 22 1020.6 1020.5 0.0
19/12:00pm 23.5 18.1 12.8 51 6.1 S 33 46 18 25 1020.6 1020.5 0.0
19/11:30am 23.6 19.1 13.8 54 5.7 S 30 39 16 21 1020.7 1020.6 0.0
19/11:00am 22.5 18.3 13.6 57 5.2 SSE 28 37 15 20 1021.0 1020.9 0.0
19/10:30am 22.4 18.2 13.5 57 5.1 SE 28 39 15 21 1021.3 1021.2 0.0
19/10:00am 21.9 17.3 13.5 59 4.8 SE 30 41 16 22 1021.1 1021.0 0.0
19/09:30am 21.2 17.2 14.1 64 4.1 SE 28 39 15 21 1020.9 1020.8 0.0
19/09:00am 21.2 17.6 14.1 64 4.1 SE 26 37 14 20 1021.1 1021.0 0.0
19/08:30am 21.3 17.3 14.2 64 4.1 SE 28 39 15 21 1020.5 1020.4 0.0
19/08:00am 20.3 16.0 14.4 69 3.4 SSE 30 39 16 21 1020.2 1020.1 0.0
19/07:30am 20.5 17.5 14.8 70 3.3 SSE 24 35 13 19 1019.6 1019.5 0.0
19/07:00am 19.7 16.1 14.3 71 3.1 SSE 26 37 14 20 1019.0 1018.9 0.0
19/06:30am 19.7 15.7 14.1 70 3.2 SE 28 39 15 21 1018.8 1018.7 0.0
19/06:00am 19.9 16.3 14.3 70 3.2 SE 26 37 14 20 1018.6 1018.5 0.0
19/05:30am 19.6 17.5 14.6 73 2.9 SE 19 28 10 15 1018.4 1018.3 0.0
19/05:00am 19.9 16.9 14.7 72 3.0 SE 24 35 13 19 1018.3 1018.2 0.0
19/04:30am 19.9 16.5 13.8 68 3.5 SE 24 39 13 21 1018.4 1018.3 0.0
19/04:00am 20.0 16.7 14.1 69 3.4 SE 24 33 13 18 1018.3 1018.2 0.0
19/03:30am 20.3 17.0 14.0 67 3.6 SE 24 32 13 17 1018.5 1018.4 0.0
19/03:00am 20.7 17.0 13.9 65 3.9 SE 26 37 14 20 1018.1 1018.0 0.0
19/02:30am 21.0 17.2 14.6 67 3.7 SSE 28 41 15 22 1018.3 1018.2 0.0
19/02:00am 20.9 17.7 15.4 71 3.3 SSE 26 35 14 19 1018.5 1018.4 0.0
19/01:30am 20.9 17.5 15.7 72 3.1 SSE 28 41 15 22 1018.6 1018.5 0.0
19/01:00am 20.9 16.7 15.7 72 3.1 SSE 32 48 17 26 1018.7 1018.6 0.0
19/12:30am 21.0 17.0 16.2 74 2.9 SSE 32 43 17 23 1018.4 1018.3 0.0
19/12:00am 21.4 17.3 15.0 67 3.8 SSE 30 43 16 23 1018.0 1017.9 0.0
 
Date/Time
CDT
Temp
°C
App
Temp
°C
Dew
Point
°C
Rel
Hum
%
Delta-T
°C
Wind Press
QNH
hPa
Press
MSL
hPa
Rain since
9am
mm
Dir  Spd
km/h
Gust
km/h
Spd
kts
Gust
kts
18/11:30pm 21.8 17.4 15.2 66 3.9 SSE 32 46 17 25 1017.7 1017.6 0.0
18/11:25pm 21.9 17.4 15.0 65 4.1 SSE 32 50 17 27 1017.8 1017.7 0.0
18/11:00pm 22.0 17.5 14.9 64 4.2 SSE 32 46 17 25 1017.4 1017.3 0.0
18/10:30pm 22.2 17.8 14.1 60 4.7 SSE 30 43 16 23 1017.5 1017.4 0.0
18/10:00pm 22.2 19.3 15.1 64 4.2 SSE 24 33 13 18 1017.5 1017.4 0.0
18/09:30pm 22.1 19.0 18.3 79 2.4 S 32 43 17 23 1016.7 1016.6 0.0
18/09:00pm 22.0 19.3 17.6 76 2.7 S 28 41 15 22 1016.4 1016.3 0.0
18/08:30pm 22.3 18.6 17.4 74 3.0 S 33 44 18 24 1015.2 1015.1 0.0
18/08:00pm 22.6 20.2 17.3 72 3.3 SSW 26 35 14 19 1015.0 1014.9 0.0
18/07:30pm 22.4 18.0 17.5 74 3.0 SSW 37 50 20 27 1014.3 1014.2 0.0
18/07:00pm 22.8 18.9 17.9 74 3.1 S 35 46 19 25 1013.9 1013.8 0.0
18/06:30pm 23.2 19.9 18.3 74 3.1 S 33 44 18 24 1013.3 1013.2 0.0
18/06:00pm 23.6 19.7 17.8 70 3.6 S 35 44 19 24 1013.1 1013.0 0.0
18/05:30pm 23.9 21.4 18.1 70 3.6 S 28 37 15 20 1012.6 1012.5 0.0
18/05:00pm 22.9 21.7 17.4 71 3.4 S 20 28 11 15 1012.8 1012.7 0.0
18/04:30pm 23.1 20.9 17.8 72 3.3 S 26 32 14 17 1013.1 1013.0 0.0
18/04:00pm 22.6 20.9 18.2 76 2.8 S 24 33 13 18 1013.4 1013.3 0.0
18/03:30pm 22.2 19.9 18.4 79 2.4 S 28 37 15 20 1012.5 1012.4 0.0
18/03:25pm 22.2 19.6 18.6 80 2.3 S 30 39 16 21 1012.3 1012.2 0.0
18/03:00pm 22.3 21.9 18.9 81 2.1 SSE 19 24 10 13 1013.7 1013.6 0.0
18/02:30pm 22.5 21.8 18.7 79 2.4 SSE 20 30 11 16 1013.8 1013.7 0.0
18/02:00pm 22.7 21.0 18.9 79 2.4 SSE 26 35 14 19 1013.5 1013.4 0.0
18/01:30pm 23.0 20.9 19.0 78 2.5 S 28 39 15 21 1013.2 1013.1 0.0
18/01:09pm 23.4 20.4 19.1 77 2.7 S 33 43 18 23 1013.4 1013.3 0.0
18/01:00pm 22.9 19.7 18.7 77 2.7 S 33 48 18 26 1013.4 1013.3 0.0
18/12:30pm 23.0 19.1 18.7 77 2.7 SSW 37 46 20 25 1013.4 1013.3 0.0
18/12:00pm 22.9 18.7 18.9 78 2.5 SSW 39 50 21 27 1013.1 1013.0 0.0
18/11:30am 22.6 18.5 19.2 81 2.2 SSW 39 50 21 27 1012.4 1012.3 0.0
18/11:04am 23.3 20.1 19.5 79 2.4 SSW 35 54 19 29 1012.4 1012.3 0.0
18/11:00am 22.9 19.2 19.1 79 2.4 SSW 37 54 20 29 1012.3 1012.2 0.0
18/10:30am 23.3 19.6 19.2 78 2.6 SSW 37 50 20 27 1011.9 1011.8 0.0
18/10:00am 22.9 21.2 19.7 82 2.1 S 28 39 15 21 1011.4 1011.3 0.0
18/09:30am 23.2 23.2 18.9 77 2.7 SSW 17 22 9 12 1011.9 1011.8 0.0
18/09:29am 23.2 23.1 18.7 76 2.8 SSW 17 22 9 12 1011.9 1011.8 0.0
18/09:00am 23.2 19.4 18.9 77 2.7 SSW 37 48 20 26 1009.9 1009.8 0.0
18/08:30am 23.3 22.1 20.1 82 2.1 S 26 35 14 19 1010.0 1009.9 0.0
18/08:00am 23.2 21.6 20.0 82 2.1 SSE 28 37 15 20 1008.1 1008.0 0.0
18/07:30am 23.7 23.7 19.0 75 3.0 S 17 24 9 13 1008.6 1008.5 0.0
18/07:00am 23.8 22.4 18.7 73 3.2 SSW 24 35 13 19 1008.5 1008.4 0.0
18/06:50am 23.9 23.3 19.8 78 2.6 SSW 22 33 12 18 1008.7 1008.6 0.0
18/06:30am 23.9 26.3 20.0 79 2.5 SW 7 13 4 7 1008.5 1008.4 0.0
18/06:00am 23.5 24.2 19.6 79 2.5 SSE 15 24 8 13 1007.1 1007.0 0.0
18/05:30am 23.4 22.2 19.3 78 2.6 S 24 32 13 17 1006.4 1006.3 0.0
18/05:00am 23.5 22.9 18.4 73 3.2 S 19 28 10 15 1007.1 1007.0 0.0
18/04:30am 23.4 22.0 18.7 75 3.0 SSW 24 35 13 19 1007.9 1007.8 0.0
18/04:00am 23.7 21.1 19.4 77 2.8 S 32 44 17 24 1006.7 1006.6 0.0
18/03:30am 25.1 22.2 18.8 68 4.0 S 32 46 17 25 1006.6 1006.5 0.0
18/03:00am 25.3 23.0 19.4 70 3.8 S 30 41 16 22 1006.5 1006.4 0.0
18/02:30am 26.0 24.8 19.2 66 4.4 S 24 33 13 18 1006.7 1006.6 0.0
18/02:00am 25.9 26.3 18.1 62 4.9 S 13 17 7 9 1006.1 1006.0 0.0
18/01:30am 25.2 26.2 18.6 67 4.2 S 11 15 6 8 1006.3 1006.2 0.0
18/01:00am 25.6 27.1 18.8 66 4.3 S 9 13 5 7 1006.4 1006.3 0.0
18/12:30am 26.1 27.6 19.0 65 4.6 S 9 13 5 7 1006.6 1006.5 0.0
18/12:00am 26.5 28.6 19.4 65 4.6 SSE 7 11 4 6 1006.9 1006.8 0.0
 
Date/Time
CDT
Temp
°C
App
Temp
°C
Dew
Point
°C
Rel
Hum
%
Delta-T
°C
Wind Press
QNH
hPa
Press
MSL
hPa
Rain since
9am
mm
Dir  Spd
km/h
Gust
km/h
Spd
kts
Gust
kts
17/11:30pm 27.0 28.4 18.6 60 5.4 SSE 9 13 5 7 1007.0 1006.9 0.0
17/11:00pm 27.3 28.3 19.4 62 5.1 SE 13 17 7 9 1007.0 1006.9 0.0
17/10:30pm 27.7 28.1 19.0 59 5.6 SE 15 20 8 11 1007.2 1007.1 0.0
17/10:00pm 28.0 27.4 18.4 56 6.1 SE 19 28 10 15 1007.3 1007.2 0.0
17/09:30pm 28.1 28.5 19.1 58 5.8 SE 15 20 8 11 1007.2 1007.1 0.0
17/09:00pm 28.0 27.6 19.0 58 5.8 SE 19 28 10 15 1007.0 1006.9 0.0
17/08:30pm 28.5 28.0 18.6 55 6.4 SSE 19 26 10 14 1006.7 1006.6 0.0
17/08:00pm 28.3 27.8 19.0 57 6.0 SSE 20 30 11 16 1006.4 1006.3 0.0
17/07:30pm 28.0 26.6 18.7 57 6.0 SSE 24 35 13 19 1006.0 1005.9 0.0
17/07:00pm 28.1 26.3 18.8 57 6.0 S 26 39 14 21 1006.0 1005.9 0.0
17/06:30pm 28.2 25.0 18.6 56 6.2 S 33 44 18 24 1005.7 1005.6 0.0
17/06:00pm 29.0 23.7 18.1 51 7.0 S 43 54 23 29 1005.6 1005.5 0.0
17/05:30pm 29.2 22.8 17.7 50 7.3 S 48 70 26 38 1005.0 1004.9 0.0
17/05:00pm 30.7 23.3 18.1 47 8.1 S 54 74 29 40 1004.6 1004.5 0.0
17/04:41pm 30.7 23.1 17.7 45 8.3 S 54 72 29 39 1004.6 1004.5 0.0
17/04:30pm 29.6 21.5 17.8 49 7.5 S 57 74 31 40 1004.2 1004.1 0.0
17/04:04pm 29.7 23.3 17.8 48 7.6 S 48 67 26 36 1003.9 1003.8 0.0
17/04:00pm 30.1 24.0 18.5 49 7.5 S 48 65 26 35 1003.9 1003.8 0.0
17/03:46pm 31.3 27.8 17.9 44 8.6 S 33 54 18 29 1003.9 1003.8 0.0
17/03:30pm 35.4 31.9 14.6 28 12.9 SSE 26 37 14 20 1003.8 1003.7 0.0
17/03:00pm 39.5 35.5 8.1 15 18.1 SE 19 24 10 13 1003.9 1003.8 0.0
17/02:30pm 38.9 34.7 7.6 15 17.8 SSE 19 24 10 13 1004.1 1004.0 0.0
17/02:00pm 39.9 36.7 8.4 15 18.2 SE 15 22 8 12 1004.6 1004.5 0.0
17/01:30pm 39.8 37.2 9.2 16 17.9 SSE 13 17 7 9 1004.9 1004.8 0.0
17/01:00pm 39.3 35.5 8.9 16 17.6 SSE 19 22 10 12 1005.2 1005.1 0.0
17/12:30pm 37.5 33.8 10.0 19 16.1 SSE 20 26 11 14 1005.7 1005.6 0.0
17/12:00pm 37.0 33.4 11.8 22 15.1 SE 22 32 12 17 1005.9 1005.8 0.0
17/11:30am 36.1 32.3 12.3 24 14.3 SE 24 35 13 19 1006.0 1005.9 0.0
17/11:00am 35.1 30.8 13.3 27 13.2 SE 28 39 15 21 1006.1 1006.0 0.0
17/10:30am 32.5 29.8 15.5 36 10.6 SSE 24 35 13 19 1006.3 1006.2 0.0
17/10:00am 31.2 29.7 16.8 42 9.1 SSE 20 30 11 16 1006.7 1006.6 0.0
17/09:30am 29.9 27.2 15.6 42 8.8 S 24 30 13 16 1007.0 1006.9 0.0
17/09:00am 28.1 26.3 16.1 48 7.4 S 20 32 11 17 1007.2 1007.1 0.0
17/08:30am 28.5 26.6 15.8 46 7.8 S 20 28 11 15 1007.2 1007.1 0.0
17/08:00am 27.1 26.1 16.7 53 6.5 S 17 20 9 11 1007.1 1007.0 0.0

Other Formats:

Comma delimited format used in spreadsheet applications
http://www.bom.gov.au/fwo/IDS60801/IDS60801.95664.axf

JavaScript Object Notation format (JSON) in row-major order
http://www.bom.gov.au/fwo/IDS60801/IDS60801.95664.json